sensor_id;sensor_type;location;lat;lon;timestamp;pressure;altitude;pressure_sealevel;temperature;humidity
46836;BME280;32573;51.290;6.926;2023-08-06T00:00:34;99076.53;;;16.73;100.00
46836;BME280;32573;51.290;6.926;2023-08-06T00:03:04;99073.00;;;16.74;100.00
46836;BME280;32573;51.290;6.926;2023-08-06T00:05:33;99076.53;;;16.73;100.00
46836;BME280;32573;51.290;6.926;2023-08-06T00:08:01;99079.19;;;16.73;100.00
46836;BME280;32573;51.290;6.926;2023-08-06T00:10:30;99075.66;;;16.72;100.00
46836;BME280;32573;51.290;6.926;2023-08-06T00:12:58;99072.13;;;16.72;100.00
46836;BME280;32573;51.290;6.926;2023-08-06T00:15:27;99067.72;;;16.72;100.00
46836;BME280;32573;51.290;6.926;2023-08-06T00:17:56;99060.69;;;16.71;100.00
46836;BME280;32573;51.290;6.926;2023-08-06T00:20:26;99057.19;;;16.71;100.00
46836;BME280;32573;51.290;6.926;2023-08-06T00:22:54;99055.41;;;16.70;100.00
46836;BME280;32573;51.290;6.926;2023-08-06T00:25:26;99052.78;;;16.70;100.00
46836;BME280;32573;51.290;6.926;2023-08-06T00:27:54;99055.41;;;16.71;100.00
46836;BME280;32573;51.290;6.926;2023-08-06T00:30:23;99052.78;;;16.70;100.00
46836;BME280;32573;51.290;6.926;2023-08-06T00:32:52;99051.03;;;16.69;100.00
46836;BME280;32573;51.290;6.926;2023-08-06T00:35:20;99052.78;;;16.70;100.00
46836;BME280;32573;51.290;6.926;2023-08-06T00:37:50;99044.03;;;16.68;100.00
46836;BME280;32573;51.290;6.926;2023-08-06T00:40:20;99045.78;;;16.67;100.00
46836;BME280;32573;51.290;6.926;2023-08-06T00:42:49;99046.69;;;16.65;100.00
46836;BME280;32573;51.290;6.926;2023-08-06T00:45:18;99041.44;;;16.63;100.00
46836;BME280;32573;51.290;6.926;2023-08-06T00:47:47;99044.09;;;16.61;100.00
46836;BME280;32573;51.290;6.926;2023-08-06T00:50:16;99035.31;;;16.59;100.00
46836;BME280;32573;51.290;6.926;2023-08-06T00:52:45;99044.16;;;16.58;100.00
46836;BME280;32573;51.290;6.926;2023-08-06T00:55:15;99044.22;;;16.55;100.00
46836;BME280;32573;51.290;6.926;2023-08-06T00:57:44;99038.06;;;16.53;100.00
46836;BME280;32573;51.290;6.926;2023-08-06T01:00:12;99048.66;;;16.52;100.00
46836;BME280;32573;51.290;6.926;2023-08-06T01:02:41;99050.44;;;16.50;100.00
46836;BME280;32573;51.290;6.926;2023-08-06T01:05:10;99039.91;;;16.48;100.00
46836;BME280;32573;51.290;6.926;2023-08-06T01:07:46;99044.34;;;16.46;100.00
46836;BME280;32573;51.290;6.926;2023-08-06T01:10:27;99042.59;;;16.45;100.00
46836;BME280;32573;51.290;6.926;2023-08-06T01:13:08;99037.31;;;16.44;100.00
46836;BME280;32573;51.290;6.926;2023-08-06T01:15:41;99040.88;;;16.43;100.00
46836;BME280;32573;51.290;6.926;2023-08-06T01:18:12;99036.47;;;16.42;100.00
46836;BME280;32573;51.290;6.926;2023-08-06T01:20:42;99036.47;;;16.42;100.00
46836;BME280;32573;51.290;6.926;2023-08-06T01:23:11;99029.44;;;16.41;100.00
46836;BME280;32573;51.290;6.926;2023-08-06T01:25:43;99035.59;;;16.41;100.00
46836;BME280;32573;51.290;6.926;2023-08-06T01:28:20;99036.47;;;16.42;100.00
46836;BME280;32573;51.290;6.926;2023-08-06T01:30:53;99038.25;;;16.41;100.00
46836;BME280;32573;51.290;6.926;2023-08-06T01:33:23;99040.88;;;16.41;100.00
46836;BME280;32573;51.290;6.926;2023-08-06T01:35:54;99027.66;;;16.43;100.00
46836;BME280;32573;51.290;6.926;2023-08-06T01:38:24;99030.31;;;16.43;100.00
46836;BME280;32573;51.290;6.926;2023-08-06T01:40:55;99023.25;;;16.43;100.00
46836;BME280;32573;51.290;6.926;2023-08-06T01:43:23;99020.59;;;16.43;100.00
46836;BME280;32573;51.290;6.926;2023-08-06T01:45:52;99017.06;;;16.44;100.00
46836;BME280;32573;51.290;6.926;2023-08-06T01:48:20;99018.84;;;16.44;100.00
46836;BME280;32573;51.290;6.926;2023-08-06T01:50:49;99006.53;;;16.43;100.00
46836;BME280;32573;51.290;6.926;2023-08-06T01:53:19;99006.50;;;16.44;100.00
46836;BME280;32573;51.290;6.926;2023-08-06T01:55:48;99009.19;;;16.41;100.00
46836;BME280;32573;51.290;6.926;2023-08-06T01:58:16;99007.41;;;16.43;100.00
46836;BME280;32573;51.290;6.926;2023-08-06T02:00:45;99006.53;;;16.43;100.00
46836;BME280;32573;51.290;6.926;2023-08-06T02:03:13;99007.41;;;16.43;100.00
46836;BME280;32573;51.290;6.926;2023-08-06T02:05:42;99003.91;;;16.43;100.00
46836;BME280;32573;51.290;6.926;2023-08-06T02:08:10;99009.13;;;16.44;100.00
46836;BME280;32573;51.290;6.926;2023-08-06T02:10:40;99002.13;;;16.43;100.00
46836;BME280;32573;51.290;6.926;2023-08-06T02:13:09;99000.34;;;16.42;100.00
46836;BME280;32573;51.290;6.926;2023-08-06T02:15:42;99002.13;;;16.43;100.00
46836;BME280;32573;51.290;6.926;2023-08-06T02:18:11;99001.22;;;16.44;100.00
46836;BME280;32573;51.290;6.926;2023-08-06T02:20:39;98993.28;;;16.44;100.00
46836;BME280;32573;51.290;6.926;2023-08-06T02:23:08;99004.72;;;16.45;100.00
46836;BME280;32573;51.290;6.926;2023-08-06T02:25:37;98993.28;;;16.44;100.00
46836;BME280;32573;51.290;6.926;2023-08-06T02:28:07;98993.28;;;16.44;100.00
46836;BME280;32573;51.290;6.926;2023-08-06T02:30:37;98990.69;;;16.43;100.00
46836;BME280;32573;51.290;6.926;2023-08-06T02:33:07;98989.78;;;16.44;100.00
46836;BME280;32573;51.290;6.926;2023-08-06T02:35:35;98993.28;;;16.44;100.00
46836;BME280;32573;51.290;6.926;2023-08-06T02:38:04;98991.56;;;16.43;100.00
46836;BME280;32573;51.290;6.926;2023-08-06T02:40:32;98996.84;;;16.43;100.00
46836;BME280;32573;51.290;6.926;2023-08-06T02:43:01;98989.78;;;16.44;100.00
46836;BME280;32573;51.290;6.926;2023-08-06T02:45:31;98981.00;;;16.43;100.00
46836;BME280;32573;51.290;6.926;2023-08-06T02:47:59;98982.72;;;16.44;100.00
46836;BME280;32573;51.290;6.926;2023-08-06T02:50:29;98981.84;;;16.44;100.00
46836;BME280;32573;51.290;6.926;2023-08-06T02:52:58;98984.50;;;16.44;100.00
46836;BME280;32573;51.290;6.926;2023-08-06T02:55:27;98973.06;;;16.43;100.00
46836;BME280;32573;51.290;6.926;2023-08-06T02:57:55;98981.00;;;16.43;100.00
46836;BME280;32573;51.290;6.926;2023-08-06T03:00:24;98970.41;;;16.43;100.00
46836;BME280;32573;51.290;6.926;2023-08-06T03:02:54;98966.88;;;16.44;100.00
46836;BME280;32573;51.290;6.926;2023-08-06T03:05:33;98959.84;;;16.43;100.00
46836;BME280;32573;51.290;6.926;2023-08-06T03:08:03;98964.22;;;16.44;100.00
46836;BME280;32573;51.290;6.926;2023-08-06T03:10:34;98954.56;;;16.43;100.00
46836;BME280;32573;51.290;6.926;2023-08-06T03:13:05;98958.09;;;16.44;100.00
46836;BME280;32573;51.290;6.926;2023-08-06T03:15:33;98962.44;;;16.45;100.00
46836;BME280;32573;51.290;6.926;2023-08-06T03:18:04;98954.56;;;16.43;100.00
46836;BME280;32573;51.290;6.926;2023-08-06T03:20:33;98954.53;;;16.45;100.00
46836;BME280;32573;51.290;6.926;2023-08-06T03:23:01;98956.31;;;16.44;100.00
46836;BME280;32573;51.290;6.926;2023-08-06T03:25:31;98956.31;;;16.44;100.00
46836;BME280;32573;51.290;6.926;2023-08-06T03:27:59;98954.56;;;16.43;100.00
46836;BME280;32573;51.290;6.926;2023-08-06T03:30:28;98950.16;;;16.44;100.00
46836;BME280;32573;51.290;6.926;2023-08-06T03:32:57;98951.88;;;16.45;100.00
46836;BME280;32573;51.290;6.926;2023-08-06T03:35:27;98951.03;;;16.44;100.00
46836;BME280;32573;51.290;6.926;2023-08-06T03:37:56;98946.59;;;16.45;100.00
46836;BME280;32573;51.290;6.926;2023-08-06T03:40:24;98943.09;;;16.44;100.00
46836;BME280;32573;51.290;6.926;2023-08-06T03:42:54;98948.38;;;16.44;100.00
46836;BME280;32573;51.290;6.926;2023-08-06T03:45:23;98948.38;;;16.44;100.00
46836;BME280;32573;51.290;6.926;2023-08-06T03:47:51;98944.00;;;16.43;100.00
46836;BME280;32573;51.290;6.926;2023-08-06T03:50:20;98936.97;;;16.42;100.00
46836;BME280;32573;51.290;6.926;2023-08-06T03:52:50;98949.28;;;16.43;100.00
46836;BME280;32573;51.290;6.926;2023-08-06T03:55:21;98942.25;;;16.42;100.00
46836;BME280;32573;51.290;6.926;2023-08-06T03:57:50;98942.25;;;16.42;100.00
46836;BME280;32573;51.290;6.926;2023-08-06T04:00:19;98946.66;;;16.42;100.00
46836;BME280;32573;51.290;6.926;2023-08-06T04:02:52;98942.28;;;16.41;100.00
46836;BME280;32573;51.290;6.926;2023-08-06T04:05:21;98938.78;;;16.40;100.00
46836;BME280;32573;51.290;6.926;2023-08-06T04:07:51;98938.78;;;16.40;100.00
46836;BME280;32573;51.290;6.926;2023-08-06T04:10:20;98940.50;;;16.41;100.00
46836;BME280;32573;51.290;6.926;2023-08-06T04:12:48;98934.38;;;16.41;100.00
46836;BME280;32573;51.290;6.926;2023-08-06T04:15:17;98941.41;;;16.40;100.00
46836;BME280;32573;51.290;6.926;2023-08-06T04:17:45;98942.28;;;16.41;100.00
46836;BME280;32573;51.290;6.926;2023-08-06T04:20:14;98944.06;;;16.40;100.00
46836;BME280;32573;51.290;6.926;2023-08-06T04:22:42;98945.81;;;16.39;100.00
46836;BME280;32573;51.290;6.926;2023-08-06T04:25:12;98938.78;;;16.40;100.00
46836;BME280;32573;51.290;6.926;2023-08-06T04:27:41;98935.28;;;16.38;100.00
46836;BME280;32573;51.290;6.926;2023-08-06T04:30:10;98939.69;;;16.37;100.00
46836;BME280;32573;51.290;6.926;2023-08-06T04:32:40;98935.28;;;16.38;100.00
46836;BME280;32573;51.290;6.926;2023-08-06T04:35:09;98937.06;;;16.36;100.00
46836;BME280;32573;51.290;6.926;2023-08-06T04:37:38;98937.06;;;16.37;100.00
46836;BME280;32573;51.290;6.926;2023-08-06T04:40:07;98937.94;;;16.36;100.00
46836;BME280;32573;51.290;6.926;2023-08-06T04:42:37;98931.78;;;16.36;100.00
46836;BME280;32573;51.290;6.926;2023-08-06T04:45:07;98932.66;;;16.36;100.00
46836;BME280;32573;51.290;6.926;2023-08-06T04:47:35;98931.78;;;16.36;100.00
46836;BME280;32573;51.290;6.926;2023-08-06T04:50:05;98937.06;;;16.36;100.00
46836;BME280;32573;51.290;6.926;2023-08-06T04:52:33;98940.56;;;16.38;100.00
46836;BME280;32573;51.290;6.926;2023-08-06T04:55:02;98936.16;;;16.37;100.00
46836;BME280;32573;51.290;6.926;2023-08-06T04:57:33;98938.78;;;16.40;100.00
46836;BME280;32573;51.290;6.926;2023-08-06T05:00:03;98943.16;;;16.39;100.00
46836;BME280;32573;51.290;6.926;2023-08-06T05:02:33;98935.22;;;16.41;100.00
46836;BME280;32573;51.290;6.926;2023-08-06T05:05:02;98934.38;;;16.41;100.00
46836;BME280;32573;51.290;6.926;2023-08-06T05:07:30;98939.66;;;16.41;100.00
46836;BME280;32573;51.290;6.926;2023-08-06T05:09:59;98935.22;;;16.41;100.00
46836;BME280;32573;51.290;6.926;2023-08-06T05:12:27;98945.78;;;16.43;100.00
46836;BME280;32573;51.290;6.926;2023-08-06T05:14:56;98949.28;;;16.43;100.00
46836;BME280;32573;51.290;6.926;2023-08-06T05:17:26;98946.66;;;16.43;100.00
46836;BME280;32573;51.290;6.926;2023-08-06T05:19:56;98953.72;;;16.43;100.00
46836;BME280;32573;51.290;6.926;2023-08-06T05:22:25;98953.72;;;16.43;100.00
46836;BME280;32573;51.290;6.926;2023-08-06T05:24:53;98956.31;;;16.44;100.00
46836;BME280;32573;51.290;6.926;2023-08-06T05:27:22;98954.56;;;16.43;100.00
46836;BME280;32573;51.290;6.926;2023-08-06T05:29:54;98966.00;;;16.44;100.00
46836;BME280;32573;51.290;6.926;2023-08-06T05:32:23;98965.13;;;16.43;100.00
46836;BME280;32573;51.290;6.926;2023-08-06T05:34:53;98969.50;;;16.44;100.00
46836;BME280;32573;51.290;6.926;2023-08-06T05:37:22;98966.00;;;16.44;100.00
46836;BME280;32573;51.290;6.926;2023-08-06T05:39:50;98966.00;;;16.44;100.00
46836;BME280;32573;51.290;6.926;2023-08-06T05:42:18;98966.00;;;16.44;100.00
46836;BME280;32573;51.290;6.926;2023-08-06T05:44:48;98970.41;;;16.43;100.00
46836;BME280;32573;51.290;6.926;2023-08-06T05:47:16;98968.66;;;16.44;100.00
46836;BME280;32573;51.290;6.926;2023-08-06T05:49:46;98979.19;;;16.45;100.00
46836;BME280;32573;51.290;6.926;2023-08-06T05:52:16;98976.56;;;16.45;100.00
46836;BME280;32573;51.290;6.926;2023-08-06T05:54:45;98979.19;;;16.45;100.00
46836;BME280;32573;51.290;6.926;2023-08-06T05:57:13;98974.78;;;16.46;100.00
46836;BME280;32573;51.290;6.926;2023-08-06T05:59:42;98977.38;;;16.47;100.00
46836;BME280;32573;51.290;6.926;2023-08-06T06:02:10;98972.09;;;16.47;100.00
46836;BME280;32573;51.290;6.926;2023-08-06T06:04:40;98973.88;;;16.48;100.00
46836;BME280;32573;51.290;6.926;2023-08-06T06:07:08;98986.16;;;16.49;100.00
46836;BME280;32573;51.290;6.926;2023-08-06T06:09:38;98977.34;;;16.50;100.00
46836;BME280;32573;51.290;6.926;2023-08-06T06:12:07;98984.38;;;16.51;100.00
46836;BME280;32573;51.290;6.926;2023-08-06T06:14:36;98987.03;;;16.51;100.00
46836;BME280;32573;51.290;6.926;2023-08-06T06:17:04;98986.09;;;16.54;100.00
46836;BME280;32573;51.290;6.926;2023-08-06T06:19:33;98980.81;;;16.55;100.00
46836;BME280;32573;51.290;6.926;2023-08-06T06:22:01;98989.59;;;16.57;100.00
46836;BME280;32573;51.290;6.926;2023-08-06T06:24:49;98984.25;;;16.60;100.00
46836;BME280;32573;51.290;6.926;2023-08-06T06:27:17;98985.06;;;16.64;100.00
46836;BME280;32573;51.290;6.926;2023-08-06T06:29:46;98994.69;;;16.67;100.00
46836;BME280;32573;51.290;6.926;2023-08-06T06:32:14;98993.75;;;16.71;100.00
46836;BME280;32573;51.290;6.926;2023-08-06T06:34:43;98988.41;;;16.74;100.00
46836;BME280;32573;51.290;6.926;2023-08-06T06:37:11;98995.44;;;16.78;100.00
46836;BME280;32573;51.290;6.926;2023-08-06T06:39:40;99001.59;;;16.80;100.00
46836;BME280;32573;51.290;6.926;2023-08-06T06:42:10;98999.75;;;16.82;100.00
46836;BME280;32573;51.290;6.926;2023-08-06T06:44:43;99003.25;;;16.84;100.00
46836;BME280;32573;51.290;6.926;2023-08-06T06:47:12;99000.63;;;16.84;100.00
46836;BME280;32573;51.290;6.926;2023-08-06T06:49:40;99003.19;;;16.87;100.00
46836;BME280;32573;51.290;6.926;2023-08-06T06:52:09;98999.69;;;16.88;100.00
46836;BME280;32573;51.290;6.926;2023-08-06T06:54:38;98997.88;;;16.90;100.00
46836;BME280;32573;51.290;6.926;2023-08-06T06:57:06;99004.03;;;16.91;100.00
46836;BME280;32573;51.290;6.926;2023-08-06T06:59:39;98997.88;;;16.90;100.00
46836;BME280;32573;51.290;6.926;2023-08-06T07:02:07;99004.03;;;16.91;100.00
46836;BME280;32573;51.290;6.926;2023-08-06T07:04:36;99005.78;;;16.92;100.00
46836;BME280;32573;51.290;6.926;2023-08-06T07:07:05;98999.56;;;16.94;100.00
46836;BME280;32573;51.290;6.926;2023-08-06T07:09:34;99003.06;;;16.96;100.00
46836;BME280;32573;51.290;6.926;2023-08-06T07:12:03;99000.41;;;16.98;100.00
46836;BME280;32573;51.290;6.926;2023-08-06T07:14:31;99001.22;;;17.01;100.00
46836;BME280;32573;51.290;6.926;2023-08-06T07:17:01;98994.13;;;17.05;100.00
46836;BME280;32573;51.290;6.926;2023-08-06T07:19:29;99007.22;;;17.10;100.00
46836;BME280;32573;51.290;6.926;2023-08-06T07:21:58;99002.75;;;17.15;100.00
46836;BME280;32573;51.290;6.926;2023-08-06T07:24:27;99006.19;;;17.20;100.00
46836;BME280;32573;51.290;6.926;2023-08-06T07:26:55;99003.44;;;17.24;100.00
46836;BME280;32573;51.290;6.926;2023-08-06T07:29:23;99008.69;;;17.28;100.00
46836;BME280;32573;51.290;6.926;2023-08-06T07:31:52;99001.56;;;17.31;100.00
46836;BME280;32573;51.290;6.926;2023-08-06T07:34:22;99009.50;;;17.31;100.00
46836;BME280;32573;51.290;6.926;2023-08-06T07:36:51;99005.94;;;17.32;100.00
46836;BME280;32573;51.290;6.926;2023-08-06T07:39:19;99008.59;;;17.32;100.00
46836;BME280;32573;51.290;6.926;2023-08-06T07:41:49;99005.94;;;17.34;100.00
46836;BME280;32573;51.290;6.926;2023-08-06T07:44:21;99006.75;;;17.37;100.00
46836;BME280;32573;51.290;6.926;2023-08-06T07:46:50;99008.50;;;17.37;100.00
46836;BME280;32573;51.290;6.926;2023-08-06T07:49:19;99014.66;;;17.39;100.00
46836;BME280;32573;51.290;6.926;2023-08-06T07:51:49;99015.50;;;17.39;100.00
46836;BME280;32573;51.290;6.926;2023-08-06T07:54:19;99018.13;;;17.42;100.00
46836;BME280;32573;51.290;6.926;2023-08-06T07:56:47;99012.78;;;17.45;100.00
46836;BME280;32573;51.290;6.926;2023-08-06T07:59:16;99018.88;;;17.49;100.00
46836;BME280;32573;51.290;6.926;2023-08-06T08:01:44;99018.78;;;17.54;100.00
46836;BME280;32573;51.290;6.926;2023-08-06T08:04:13;99018.72;;;17.57;100.00
46836;BME280;32573;51.290;6.926;2023-08-06T08:06:41;99016.03;;;17.60;100.00
46836;BME280;32573;51.290;6.926;2023-08-06T08:09:11;99017.75;;;17.62;100.00
46836;BME280;32573;51.290;6.926;2023-08-06T08:11:41;99019.47;;;17.65;100.00
46836;BME280;32573;51.290;6.926;2023-08-06T08:14:09;99015.91;;;17.66;100.00
46836;BME280;32573;51.290;6.926;2023-08-06T08:16:38;99017.63;;;17.68;100.00
46836;BME280;32573;51.290;6.926;2023-08-06T08:19:06;99027.25;;;17.73;100.00
46836;BME280;32573;51.290;6.926;2023-08-06T08:21:35;99021.88;;;17.76;100.00
46836;BME280;32573;51.290;6.926;2023-08-06T08:24:04;99029.81;;;17.77;100.00
46836;BME280;32573;51.290;6.926;2023-08-06T08:26:34;99028.84;;;17.81;100.00
46836;BME280;32573;51.290;6.926;2023-08-06T08:29:02;99038.56;;;17.82;100.00
46836;BME280;32573;51.290;6.926;2023-08-06T08:31:31;99047.31;;;17.84;100.00
46836;BME280;32573;51.290;6.926;2023-08-06T08:34:06;99029.63;;;17.86;100.00
46836;BME280;32573;51.290;6.926;2023-08-06T08:36:34;99039.34;;;17.87;100.00
46836;BME280;32573;51.290;6.926;2023-08-06T08:39:03;99029.56;;;17.89;100.00
46836;BME280;32573;51.290;6.926;2023-08-06T08:41:36;99037.50;;;17.89;100.00
46836;BME280;32573;51.290;6.926;2023-08-06T08:44:08;99030.50;;;17.87;100.00
46836;BME280;32573;51.290;6.926;2023-08-06T08:46:38;99041.16;;;17.85;100.00
46836;BME280;32573;51.290;6.926;2023-08-06T08:49:08;99042.03;;;17.84;100.00
46836;BME280;32573;51.290;6.926;2023-08-06T08:51:37;99043.78;;;17.85;100.00
46836;BME280;32573;51.290;6.926;2023-08-06T08:54:07;99046.44;;;17.85;100.00
46836;BME280;32573;51.290;6.926;2023-08-06T08:56:38;99044.66;;;17.86;100.00
46836;BME280;32573;51.290;6.926;2023-08-06T08:59:06;99053.50;;;17.85;100.00
46836;BME280;32573;51.290;6.926;2023-08-06T09:01:35;99050.88;;;17.83;100.00
46836;BME280;32573;51.290;6.926;2023-08-06T09:04:05;99047.38;;;17.81;100.00
46836;BME280;32573;51.290;6.926;2023-08-06T09:06:37;99053.56;;;17.82;100.00
46836;BME280;32573;51.290;6.926;2023-08-06T09:09:08;99057.09;;;17.82;100.00
46836;BME280;32573;51.290;6.926;2023-08-06T09:11:42;99050.88;;;17.83;100.00
46836;BME280;32573;51.290;6.926;2023-08-06T09:14:11;99057.91;;;17.84;100.00
46836;BME280;32573;51.290;6.926;2023-08-06T09:16:40;99063.19;;;17.87;100.00
46836;BME280;32573;51.290;6.926;2023-08-06T09:19:09;99060.47;;;17.89;100.00
46836;BME280;32573;51.290;6.926;2023-08-06T09:21:39;99066.63;;;17.91;100.00
46836;BME280;32573;51.290;6.926;2023-08-06T09:24:08;99071.00;;;17.92;100.00
46836;BME280;32573;51.290;6.926;2023-08-06T09:26:39;99073.63;;;17.94;100.00
46836;BME280;32573;51.290;6.926;2023-08-06T09:29:09;99073.63;;;17.94;100.00
46836;BME280;32573;51.290;6.926;2023-08-06T09:31:41;99075.44;;;17.92;100.00
46836;BME280;32573;51.290;6.926;2023-08-06T09:34:15;99079.94;;;17.86;100.00
46836;BME280;32573;51.290;6.926;2023-08-06T09:36:46;99088.81;;;17.84;100.00
46836;BME280;32573;51.290;6.926;2023-08-06T09:39:16;99087.09;;;17.83;100.00
46836;BME280;32573;51.290;6.926;2023-08-06T09:41:47;99070.34;;;17.82;100.00
46836;BME280;32573;51.290;6.926;2023-08-06T09:44:16;99082.66;;;17.83;100.00
46836;BME280;32573;51.290;6.926;2023-08-06T09:46:49;99082.66;;;17.83;100.00
46836;BME280;32573;51.290;6.926;2023-08-06T09:49:19;99091.44;;;17.85;100.00
46836;BME280;32573;51.290;6.926;2023-08-06T09:51:51;99087.88;;;17.86;100.00
46836;BME280;32573;51.290;6.926;2023-08-06T09:54:23;99101.97;;;17.88;100.00
46836;BME280;32573;51.290;6.926;2023-08-06T09:56:56;99093.97;;;17.92;100.00
46836;BME280;32573;51.290;6.926;2023-08-06T09:59:24;99085.13;;;17.93;100.00
46836;BME280;32573;51.290;6.926;2023-08-06T10:01:54;99094.75;;;17.97;100.00
46836;BME280;32573;51.290;6.926;2023-08-06T10:04:23;99094.72;;;18.00;100.00
46836;BME280;32573;51.290;6.926;2023-08-06T10:07:01;99095.50;;;18.05;100.00
46836;BME280;32573;51.290;6.926;2023-08-06T10:09:30;99096.31;;;18.07;100.00
46836;BME280;32573;51.290;6.926;2023-08-06T10:12:00;99091.91;;;18.07;100.00
46836;BME280;32573;51.290;6.926;2023-08-06T10:14:32;99104.25;;;18.07;100.00
46836;BME280;32573;51.290;6.926;2023-08-06T10:17:02;99107.81;;;18.06;100.00
46836;BME280;32573;51.290;6.926;2023-08-06T10:19:31;99113.13;;;18.04;100.00
46836;BME280;32573;51.290;6.926;2023-08-06T10:22:09;99122.94;;;18.01;100.00
46836;BME280;32573;51.290;6.926;2023-08-06T10:24:56;99117.69;;;17.98;100.00
46836;BME280;32573;51.290;6.926;2023-08-06T10:27:31;99116.84;;;17.94;100.00
46836;BME280;32573;51.290;6.926;2023-08-06T10:30:25;99118.72;;;17.91;100.00
46836;BME280;32573;51.290;6.926;2023-08-06T10:32:55;99125.00;;;17.85;100.00
46836;BME280;32573;51.290;6.926;2023-08-06T10:35:29;99119.78;;;17.80;100.00
46836;BME280;32573;51.290;6.926;2023-08-06T10:37:59;99124.28;;;17.74;100.00
46836;BME280;32573;51.290;6.926;2023-08-06T10:40:28;99135.91;;;17.65;100.00
46836;BME280;32573;51.290;6.926;2023-08-06T10:43:00;99129.03;;;17.55;100.00
46836;BME280;32573;51.290;6.926;2023-08-06T10:45:29;99135.34;;;17.46;100.00
46836;BME280;32573;51.290;6.926;2023-08-06T10:47:57;99132.88;;;17.35;100.00
46836;BME280;32573;51.290;6.926;2023-08-06T10:50:26;99141.81;;;17.28;100.00
46836;BME280;32573;51.290;6.926;2023-08-06T10:52:55;99146.38;;;17.20;100.00
46836;BME280;32573;51.290;6.926;2023-08-06T10:55:25;99144.72;;;17.13;100.00
46836;BME280;32573;51.290;6.926;2023-08-06T10:57:54;99150.97;;;17.06;100.00
46836;BME280;32573;51.290;6.926;2023-08-06T11:00:24;99158.13;;;17.00;100.00
46836;BME280;32573;51.290;6.926;2023-08-06T11:02:53;99166.09;;;16.97;100.00
46836;BME280;32573;51.290;6.926;2023-08-06T11:05:22;99164.38;;;16.92;100.00
46836;BME280;32573;51.290;6.926;2023-08-06T11:07:51;99170.53;;;16.92;100.00
46836;BME280;32573;51.290;6.926;2023-08-06T11:10:19;99167.94;;;16.89;100.00
46836;BME280;32573;51.290;6.926;2023-08-06T11:12:48;99175.06;;;16.86;100.00
46836;BME280;32573;51.290;6.926;2023-08-06T11:15:16;99183.00;;;16.84;100.00
46836;BME280;32573;51.290;6.926;2023-08-06T11:17:46;99183.06;;;16.81;100.00
46836;BME280;32573;51.290;6.926;2023-08-06T11:20:15;99185.75;;;16.78;100.00
46836;BME280;32573;51.290;6.926;2023-08-06T11:22:44;99183.13;;;16.73;100.00
46836;BME280;32573;51.290;6.926;2023-08-06T11:25:13;99194.63;;;16.69;100.00
46836;BME280;32573;51.290;6.926;2023-08-06T11:27:41;99192.94;;;16.62;100.00
46836;BME280;32573;51.290;6.926;2023-08-06T11:30:11;99199.13;;;16.59;100.00
46836;BME280;32573;51.290;6.926;2023-08-06T11:32:47;99205.38;;;16.55;100.00
46836;BME280;32573;51.290;6.926;2023-08-06T11:35:16;99201.91;;;16.50;100.00
46836;BME280;32573;51.290;6.926;2023-08-06T11:37:45;99203.69;;;16.47;100.00
46836;BME280;32573;51.290;6.926;2023-08-06T11:40:15;99203.75;;;16.44;100.00
46836;BME280;32573;51.290;6.926;2023-08-06T11:42:44;99202.00;;;16.41;100.00
46836;BME280;32573;51.290;6.926;2023-08-06T11:45:14;99213.50;;;16.38;100.00
46836;BME280;32573;51.290;6.926;2023-08-06T11:47:51;99209.09;;;16.37;100.00
46836;BME280;32573;51.290;6.926;2023-08-06T11:50:24;99213.50;;;16.37;100.00
46836;BME280;32573;51.290;6.926;2023-08-06T11:52:55;99215.31;;;16.35;100.00
46836;BME280;32573;51.290;6.926;2023-08-06T11:55:25;99219.69;;;16.34;100.00
46836;BME280;32573;51.290;6.926;2023-08-06T11:57:54;99217.09;;;16.33;100.00
46836;BME280;32573;51.290;6.926;2023-08-06T12:00:23;99221.47;;;16.32;100.00
46836;BME280;32573;51.290;6.926;2023-08-06T12:02:53;99213.56;;;16.31;100.00
46836;BME280;32573;51.290;6.926;2023-08-06T12:05:23;99217.09;;;16.30;100.00
46836;BME280;32573;51.290;6.926;2023-08-06T12:07:53;99223.28;;;16.27;100.00
46836;BME280;32573;51.290;6.926;2023-08-06T12:10:25;99232.09;;;16.28;100.00
46836;BME280;32573;51.290;6.926;2023-08-06T12:12:53;99237.38;;;16.28;100.00
46836;BME280;32573;51.290;6.926;2023-08-06T12:15:22;99229.47;;;16.28;100.00
46836;BME280;32573;51.290;6.926;2023-08-06T12:17:51;99234.72;;;16.29;100.00
46836;BME280;32573;51.290;6.926;2023-08-06T12:20:21;99241.75;;;16.29;100.00
46836;BME280;32573;51.290;6.926;2023-08-06T12:22:51;99247.03;;;16.29;100.00
46836;BME280;32573;51.290;6.926;2023-08-06T12:25:20;99252.31;;;16.29;100.00
46836;BME280;32573;51.290;6.926;2023-08-06T12:27:48;99256.75;;;16.28;100.00
46836;BME280;32573;51.290;6.926;2023-08-06T12:30:17;99252.38;;;16.26;100.00
46836;BME280;32573;51.290;6.926;2023-08-06T12:32:45;99255.00;;;16.24;100.00
46836;BME280;32573;51.290;6.926;2023-08-06T12:35:14;99258.56;;;16.23;100.00
46836;BME280;32573;51.290;6.926;2023-08-06T12:37:44;99257.69;;;16.21;100.00
46836;BME280;32573;51.290;6.926;2023-08-06T12:40:13;99259.47;;;16.21;100.00
46836;BME280;32573;51.290;6.926;2023-08-06T12:43:01;99268.25;;;16.20;100.00
46836;BME280;32573;51.290;6.926;2023-08-06T12:45:30;99262.97;;;16.20;100.00
46836;BME280;32573;51.290;6.926;2023-08-06T12:47:58;99264.75;;;16.21;100.00
46836;BME280;32573;51.290;6.926;2023-08-06T12:50:27;99270.03;;;16.21;100.00
46836;BME280;32573;51.290;6.926;2023-08-06T12:52:56;99275.31;;;16.21;100.00
46836;BME280;32573;51.290;6.926;2023-08-06T12:55:25;99278.81;;;16.20;100.00
46836;BME280;32573;51.290;6.926;2023-08-06T12:57:55;99275.31;;;16.19;100.00
46836;BME280;32573;51.290;6.926;2023-08-06T13:00:25;99292.00;;;16.20;100.00
46836;BME280;32573;51.290;6.926;2023-08-06T13:02:57;99287.63;;;16.18;100.00